createdAt,value
2018-06-29T00:02:04.556Z,4.53
2018-06-29T00:04:31.844Z,4.23
2018-06-29T00:06:59.164Z,5.07
2018-06-29T00:09:26.460Z,5.60
2018-06-29T00:11:53.745Z,4.13
2018-06-29T00:14:21.085Z,4.73
2018-06-29T00:16:48.457Z,4.60
2018-06-29T00:19:15.743Z,4.60
2018-06-29T00:21:43.066Z,5.50
2018-06-29T00:24:10.368Z,5.47
2018-06-29T00:26:37.634Z,3.90
2018-06-29T00:29:04.958Z,4.13
2018-06-29T00:31:32.257Z,5.30
2018-06-29T00:33:59.551Z,4.47
2018-06-29T00:36:26.836Z,4.87
2018-06-29T00:38:54.154Z,4.93
2018-06-29T00:41:21.432Z,6.00
2018-06-29T00:43:48.748Z,4.57
2018-06-29T00:46:16.019Z,6.70
2018-06-29T00:48:43.345Z,5.30
2018-06-29T00:51:10.630Z,5.57
2018-06-29T00:53:37.933Z,6.47
2018-06-29T00:56:05.214Z,5.10
2018-06-29T00:58:32.565Z,4.80
2018-06-29T01:00:59.848Z,5.17
2018-06-29T01:03:27.116Z,6.57
2018-06-29T01:05:54.407Z,7.43
2018-06-29T01:08:21.691Z,5.13
2018-06-29T01:10:49.047Z,5.23
2018-06-29T01:13:16.308Z,8.37
2018-06-29T01:15:43.592Z,5.03
2018-06-29T01:18:10.865Z,5.80
2018-06-29T01:20:38.204Z,5.13
2018-06-29T01:23:05.489Z,4.53
2018-06-29T01:25:32.788Z,4.70
2018-06-29T01:28:00.066Z,4.80
2018-06-29T01:30:27.364Z,4.77
2018-06-29T01:32:54.624Z,5.43
2018-06-29T01:35:21.917Z,6.00
2018-06-29T01:37:49.240Z,5.17
2018-06-29T01:40:16.521Z,5.67
2018-06-29T01:42:43.771Z,5.23
2018-06-29T01:45:11.085Z,5.23
2018-06-29T01:47:38.352Z,5.20
2018-06-29T01:50:05.685Z,5.73
2018-06-29T01:52:32.954Z,7.37
2018-06-29T01:55:00.252Z,5.70
2018-06-29T01:57:27.548Z,5.13
2018-06-29T01:59:54.848Z,6.57
2018-06-29T02:02:22.107Z,5.50
2018-06-29T02:04:49.429Z,5.10
2018-06-29T02:07:16.722Z,5.10
2018-06-29T02:09:44.020Z,5.10
2018-06-29T02:12:11.348Z,5.07
2018-06-29T02:14:38.640Z,5.33
2018-06-29T02:17:05.932Z,4.93
2018-06-29T02:19:33.204Z,5.10
2018-06-29T02:22:00.472Z,6.97
2018-06-29T02:24:27.775Z,5.37
2018-06-29T02:26:56.357Z,5.37
2018-06-29T02:29:23.636Z,4.90
2018-06-29T02:31:50.948Z,5.00
2018-06-29T02:34:18.217Z,4.40
2018-06-29T02:36:45.512Z,4.77
2018-06-29T02:39:13.578Z,8.13
2018-06-29T02:41:41.177Z,7.83
2018-06-29T02:44:08.457Z,8.00
2018-06-29T02:46:35.790Z,5.07
2018-06-29T02:49:03.109Z,5.10
2018-06-29T02:51:30.408Z,4.40
2018-06-29T02:53:57.712Z,6.60
2018-06-29T02:56:25.013Z,4.40
2018-06-29T02:58:52.576Z,5.07
2018-06-29T03:01:19.889Z,6.60
2018-06-29T03:03:47.153Z,5.87
2018-06-29T03:06:14.461Z,8.13
2018-06-29T03:08:41.813Z,6.03
2018-06-29T03:11:09.136Z,5.63
2018-06-29T03:13:36.431Z,5.33
2018-06-29T03:16:03.748Z,5.33
2018-06-29T03:18:31.032Z,5.97
2018-06-29T03:20:58.476Z,5.50
2018-06-29T03:23:25.742Z,5.72
2018-06-29T03:25:53.057Z,5.73
2018-06-29T03:28:20.381Z,5.90
2018-06-29T03:30:47.676Z,7.30
2018-06-29T03:33:15.020Z,5.90
2018-06-29T03:35:42.342Z,5.53
2018-06-29T03:38:09.659Z,6.17
2018-06-29T03:40:37.085Z,8.17
2018-06-29T03:43:04.265Z,5.53
2018-06-29T03:45:31.556Z,5.60
2018-06-29T03:47:58.838Z,9.27
2018-06-29T03:50:26.164Z,6.77
2018-06-29T03:52:53.506Z,5.70
2018-06-29T03:55:20.813Z,8.17
2018-06-29T03:57:48.125Z,5.83
2018-06-29T04:00:15.402Z,6.83
2018-06-29T04:02:42.716Z,9.10
2018-06-29T04:05:10.044Z,6.03
2018-06-29T04:07:37.330Z,5.87
2018-06-29T04:10:04.625Z,7.03
2018-06-29T04:12:31.901Z,7.50
2018-06-29T04:14:59.178Z,6.67
2018-06-29T04:17:26.460Z,7.60
2018-06-29T04:19:53.756Z,6.50
2018-06-29T04:22:21.064Z,6.97
2018-06-29T04:24:48.369Z,5.63
2018-06-29T04:27:15.647Z,10.43
2018-06-29T04:29:42.925Z,6.00
2018-06-29T04:32:10.277Z,6.37
2018-06-29T04:34:37.569Z,11.97
2018-06-29T04:37:05.229Z,5.70
2018-06-29T04:39:32.480Z,6.97
2018-06-29T04:41:59.796Z,6.10
2018-06-29T04:44:27.064Z,11.63
2018-06-29T04:46:54.355Z,11.37
2018-06-29T04:49:21.659Z,8.53
2018-06-29T04:51:49.011Z,7.33
2018-06-29T04:54:16.297Z,6.97
2018-06-29T04:56:43.713Z,6.70
2018-06-29T04:59:11.044Z,8.63
2018-06-29T05:01:38.337Z,9.97
2018-06-29T05:04:05.669Z,6.67
2018-06-29T05:06:32.988Z,7.57
2018-06-29T05:09:00.265Z,5.80
2018-06-29T05:11:27.561Z,8.03
2018-06-29T05:13:54.918Z,5.70
2018-06-29T05:16:22.229Z,6.83
2018-06-29T05:18:49.523Z,6.43
2018-06-29T05:21:17.185Z,8.07
2018-06-29T05:23:44.462Z,7.23
2018-06-29T05:26:11.796Z,8.33
2018-06-29T05:28:39.126Z,6.63
2018-06-29T05:31:06.353Z,8.60
2018-06-29T05:33:33.647Z,8.23
2018-06-29T05:36:00.935Z,8.70
2018-06-29T05:38:28.232Z,7.13
2018-06-29T05:40:55.539Z,7.20
2018-06-29T05:43:22.845Z,7.50
2018-06-29T05:45:50.116Z,8.03
2018-06-29T05:48:17.444Z,5.83
2018-06-29T05:50:44.844Z,10.47
2018-06-29T05:53:12.129Z,6.63
2018-06-29T05:55:39.428Z,5.97
2018-06-29T05:58:06.804Z,5.87
2018-06-29T06:00:34.155Z,6.03
2018-06-29T06:03:01.482Z,11.33
2018-06-29T06:05:29.076Z,7.47
2018-06-29T06:07:56.429Z,6.30
2018-06-29T06:10:23.749Z,6.07
2018-06-29T06:12:51.035Z,8.23
2018-06-29T06:15:18.302Z,6.30
2018-06-29T06:17:45.608Z,5.40
2018-06-29T06:20:13.994Z,6.30
2018-06-29T06:22:41.325Z,6.27
2018-06-29T06:25:08.618Z,10.33
2018-06-29T06:27:35.959Z,6.40
2018-06-29T06:30:03.312Z,6.03
2018-06-29T06:32:30.608Z,8.43
2018-06-29T06:34:57.884Z,11.60
2018-06-29T06:37:25.217Z,10.30
2018-06-29T06:39:52.545Z,8.77
2018-06-29T06:42:19.865Z,8.00
2018-06-29T06:44:47.147Z,7.03
2018-06-29T06:47:14.549Z,6.93
2018-06-29T06:49:41.844Z,8.60
2018-06-29T06:52:09.188Z,6.87
2018-06-29T06:54:36.481Z,7.70
2018-06-29T06:57:04.254Z,9.23
2018-06-29T06:59:31.555Z,9.57
2018-06-29T07:01:58.897Z,8.07
2018-06-29T07:04:26.179Z,8.53
2018-06-29T07:06:53.601Z,7.93
2018-06-29T07:09:20.935Z,8.07
2018-06-29T07:11:48.234Z,7.37
2018-06-29T07:14:15.541Z,6.07
2018-06-29T07:16:42.835Z,9.40
2018-06-29T07:19:10.152Z,5.37
2018-06-29T07:21:37.646Z,6.90
2018-06-29T07:24:04.961Z,8.00
2018-06-29T07:26:32.289Z,7.07
2018-06-29T07:28:59.625Z,8.73
2018-06-29T07:31:26.919Z,6.60
2018-06-29T07:33:54.309Z,8.10
2018-06-29T07:36:21.575Z,5.93
2018-06-29T07:38:48.864Z,7.47
2018-06-29T07:41:16.176Z,8.27
2018-06-29T07:43:43.475Z,7.70
2018-06-29T07:46:10.874Z,8.20
2018-06-29T07:48:38.308Z,7.97
2018-06-29T07:51:05.720Z,7.20
2018-06-29T07:53:33.086Z,5.77
2018-06-29T07:56:00.392Z,6.23
2018-06-29T07:58:28.020Z,6.13
2018-06-29T08:01:01.533Z,7.07
2018-06-29T08:03:28.861Z,10.47
2018-06-29T08:05:56.120Z,10.03
2018-06-29T08:08:23.401Z,4.57
2018-06-29T08:10:50.660Z,5.60
2018-06-29T08:13:17.978Z,5.53
2018-06-29T08:15:45.248Z,7.80
2018-06-29T08:18:12.689Z,7.87
2018-06-29T08:20:39.953Z,5.03
2018-06-29T08:23:07.252Z,4.63
2018-06-29T08:25:34.508Z,5.17
2018-06-29T08:28:01.818Z,5.27
2018-06-29T08:30:29.085Z,6.40
2018-06-29T08:32:56.356Z,10.27
2018-06-29T08:35:23.682Z,6.00
2018-06-29T08:37:50.969Z,8.73
2018-06-29T08:40:18.244Z,5.07
2018-06-29T08:42:45.541Z,5.77
2018-06-29T08:45:12.832Z,3.90
2018-06-29T08:47:40.100Z,4.47
2018-06-29T08:50:07.400Z,4.60
2018-06-29T08:52:34.690Z,4.73
2018-06-29T08:55:01.972Z,4.30
2018-06-29T08:57:29.276Z,5.23
2018-06-29T08:59:56.564Z,5.10
2018-06-29T09:02:23.848Z,5.37
2018-06-29T09:04:51.133Z,7.47
2018-06-29T09:07:18.464Z,6.27
2018-06-29T09:09:45.762Z,4.37
2018-06-29T09:12:13.038Z,4.93
2018-06-29T09:14:40.328Z,6.40
2018-06-29T09:17:07.622Z,4.00
2018-06-29T09:19:34.903Z,3.57
2018-06-29T09:22:02.168Z,4.90
2018-06-29T09:24:29.467Z,5.70
2018-06-29T09:26:56.740Z,5.53
2018-06-29T09:29:24.094Z,3.87
2018-06-29T09:31:51.373Z,3.53
2018-06-29T09:34:18.644Z,4.10
2018-06-29T09:36:45.924Z,5.10
2018-06-29T09:39:13.904Z,4.83
2018-06-29T09:41:44.648Z,4.17
2018-06-29T09:44:11.927Z,3.77
2018-06-29T09:46:39.220Z,3.87
2018-06-29T09:49:06.522Z,4.53
2018-06-29T09:51:33.808Z,3.87
2018-06-29T09:54:01.199Z,4.40
2018-06-29T09:56:28.966Z,4.57
2018-06-29T09:58:56.436Z,3.53
2018-06-29T10:01:23.809Z,3.40
2018-06-29T10:03:51.040Z,3.33
2018-06-29T10:06:18.381Z,3.43
2018-06-29T10:08:45.620Z,3.43
2018-06-29T10:11:12.935Z,3.43
2018-06-29T10:13:40.213Z,3.83
2018-06-29T10:16:07.504Z,5.40
2018-06-29T10:18:34.820Z,2.93
2018-06-29T10:21:02.080Z,3.10
2018-06-29T10:23:29.360Z,4.90
2018-06-29T10:25:56.633Z,5.03
2018-06-29T10:28:23.932Z,7.17
2018-06-29T10:30:51.236Z,3.43
2018-06-29T10:33:18.508Z,2.90
2018-06-29T10:35:45.792Z,3.00
2018-06-29T10:38:13.052Z,2.57
2018-06-29T10:40:40.415Z,3.60
2018-06-29T10:43:07.697Z,3.00
2018-06-29T10:45:34.997Z,2.80
2018-06-29T10:48:02.289Z,4.07
2018-06-29T10:50:29.568Z,5.00
2018-06-29T10:52:56.857Z,4.03
2018-06-29T10:55:24.193Z,3.10
2018-06-29T10:57:51.476Z,2.80
2018-06-29T11:00:18.784Z,2.30
2018-06-29T11:02:46.083Z,3.60
2018-06-29T11:05:13.418Z,2.77
2018-06-29T11:07:41.029Z,3.77
2018-06-29T11:10:08.820Z,2.87
2018-06-29T11:12:37.030Z,5.70
2018-06-29T11:15:04.478Z,2.70
2018-06-29T11:17:31.752Z,4.00
2018-06-29T11:19:59.046Z,2.77
2018-06-29T11:22:26.408Z,4.17
2018-06-29T11:24:53.740Z,3.10
2018-06-29T11:27:21.009Z,4.17
2018-06-29T11:29:48.291Z,2.97
2018-06-29T11:32:15.578Z,5.85
2018-06-29T11:34:42.868Z,4.33
2018-06-29T11:37:10.152Z,2.83
2018-06-29T11:39:37.467Z,2.90
2018-06-29T11:42:04.764Z,2.80
2018-06-29T11:44:32.020Z,3.13
2018-06-29T11:46:59.478Z,5.30
2018-06-29T11:49:26.771Z,2.92
2018-06-29T11:51:54.059Z,2.60
2018-06-29T11:54:21.340Z,2.60
2018-06-29T11:56:48.632Z,8.40
2018-06-29T11:59:15.925Z,3.90
2018-06-29T12:01:43.340Z,2.67
2018-06-29T12:04:10.677Z,3.27
2018-06-29T12:06:38.005Z,4.40
2018-06-29T12:09:06.665Z,3.40
2018-06-29T12:11:34.047Z,3.87
2018-06-29T12:14:01.352Z,4.08
2018-06-29T12:16:28.660Z,4.12
2018-06-29T12:18:55.992Z,3.45
2018-06-29T12:21:23.329Z,2.65
2018-06-29T12:23:50.636Z,2.80
2018-06-29T12:26:17.934Z,4.30
2018-06-29T12:28:45.241Z,3.20
2018-06-29T12:31:12.539Z,4.40
2018-06-29T12:33:39.831Z,2.62
2018-06-29T12:36:07.141Z,3.20
2018-06-29T12:38:35.217Z,2.58
2018-06-29T12:41:02.877Z,3.30
2018-06-29T12:43:30.300Z,2.75
2018-06-29T12:45:57.653Z,2.40
2018-06-29T12:48:24.945Z,2.87
2018-06-29T12:50:52.256Z,2.75
2018-06-29T12:53:19.569Z,2.72
2018-06-29T12:55:47.003Z,2.70
2018-06-29T12:58:14.428Z,2.37
2018-06-29T13:00:41.770Z,2.83
2018-06-29T13:03:09.088Z,3.10
2018-06-29T13:05:36.547Z,3.95
2018-06-29T13:08:03.792Z,4.83
2018-06-29T13:10:31.099Z,4.00
2018-06-29T13:12:58.413Z,3.37
2018-06-29T13:15:25.960Z,2.45
2018-06-29T13:17:53.265Z,2.92
2018-06-29T13:20:20.573Z,3.25
2018-06-29T13:22:47.887Z,2.83
2018-06-29T13:25:15.230Z,4.67
2018-06-29T13:27:42.508Z,3.05
2018-06-29T13:30:09.812Z,3.00
2018-06-29T13:32:37.102Z,3.27
2018-06-29T13:35:04.408Z,2.60
2018-06-29T13:37:31.761Z,3.27
2018-06-29T13:39:59.089Z,2.50
2018-06-29T13:42:26.384Z,2.30
2018-06-29T13:44:53.725Z,2.52
2018-06-29T13:47:21.029Z,4.08
2018-06-29T13:49:48.303Z,2.70
2018-06-29T13:52:15.636Z,2.60
2018-06-29T13:54:42.926Z,2.60
2018-06-29T13:57:10.297Z,2.40
2018-06-29T13:59:37.637Z,3.85
2018-06-29T14:02:05.005Z,3.40
2018-06-29T14:04:32.287Z,2.45
2018-06-29T14:06:59.617Z,2.20
2018-06-29T14:09:26.912Z,2.70
2018-06-29T14:11:54.262Z,3.12
2018-06-29T14:14:21.545Z,2.20
2018-06-29T14:16:48.889Z,4.28
2018-06-29T14:19:16.172Z,4.85
2018-06-29T14:21:43.518Z,3.42
2018-06-29T14:24:10.832Z,2.92
2018-06-29T14:26:38.120Z,2.00
2018-06-29T14:29:05.496Z,2.47
2018-06-29T14:31:32.700Z,2.00
2018-06-29T14:34:00.037Z,2.10
2018-06-29T14:36:27.340Z,2.22
2018-06-29T14:38:54.696Z,3.90
2018-06-29T14:41:21.987Z,2.92
2018-06-29T14:43:49.316Z,4.35
2018-06-29T14:46:16.615Z,2.62
2018-06-29T14:48:44.069Z,2.12
2018-06-29T14:51:11.739Z,3.27
2018-06-29T14:53:39.124Z,2.87
2018-06-29T14:56:06.428Z,2.92
2018-06-29T14:58:33.724Z,2.50
2018-06-29T15:01:01.005Z,2.35
2018-06-29T15:03:28.308Z,4.37
2018-06-29T15:05:55.657Z,2.62
2018-06-29T15:08:22.973Z,2.52
2018-06-29T15:10:50.257Z,2.67
2018-06-29T15:13:17.547Z,2.65
2018-06-29T15:15:44.844Z,3.33
2018-06-29T15:18:12.128Z,2.90
2018-06-29T15:20:39.400Z,3.50
2018-06-29T15:23:06.711Z,3.60
2018-06-29T15:25:34.034Z,2.72
2018-06-29T15:28:01.333Z,5.55
2018-06-29T15:30:28.656Z,5.22
2018-06-29T15:32:56.013Z,3.37
2018-06-29T15:35:23.318Z,3.80
2018-06-29T15:37:50.620Z,3.55
2018-06-29T15:40:17.931Z,2.80
2018-06-29T15:42:45.220Z,2.50
2018-06-29T15:45:12.527Z,2.60
2018-06-29T15:47:39.865Z,3.15
2018-06-29T15:50:07.312Z,3.65
2018-06-29T15:52:34.660Z,3.65
2018-06-29T15:55:02.108Z,3.15
2018-06-29T15:57:29.465Z,3.02
2018-06-29T15:59:56.772Z,2.65
2018-06-29T16:02:24.107Z,2.60
2018-06-29T16:04:51.459Z,2.50
2018-06-29T16:07:18.772Z,2.98
2018-06-29T16:09:46.058Z,3.92
2018-06-29T16:12:13.400Z,2.70
2018-06-29T16:14:40.772Z,2.65
2018-06-29T16:17:08.086Z,2.87
2018-06-29T16:19:35.437Z,5.35
2018-06-29T16:22:02.763Z,3.12
2018-06-29T16:24:30.117Z,3.70
2018-06-29T16:26:57.421Z,3.00
2018-06-29T16:29:24.731Z,2.90
2018-06-29T16:31:52.000Z,2.58
2018-06-29T16:34:19.326Z,3.75
2018-06-29T16:36:46.624Z,2.72
2018-06-29T16:39:14.000Z,5.00
2018-06-29T16:41:41.680Z,2.80
2018-06-29T16:44:09.008Z,2.45
2018-06-29T16:46:36.419Z,3.90
2018-06-29T16:49:03.905Z,2.42
2018-06-29T16:51:31.256Z,4.67
2018-06-29T16:53:58.540Z,3.30
2018-06-29T16:56:25.865Z,3.30
2018-06-29T16:58:53.220Z,3.02
2018-06-29T17:01:20.714Z,5.30
2018-06-29T17:03:48.111Z,4.03
2018-06-29T17:06:17.362Z,3.27
2018-06-29T17:08:44.682Z,2.95
2018-06-29T17:11:12.747Z,3.12
2018-06-29T17:13:40.024Z,2.80
2018-06-29T17:16:07.329Z,4.53
2018-06-29T17:18:34.721Z,2.30
2018-06-29T17:21:01.988Z,3.70
2018-06-29T17:23:29.293Z,2.92
2018-06-29T17:25:56.591Z,4.05
2018-06-29T17:28:23.900Z,2.37
2018-06-29T17:30:51.189Z,3.98
2018-06-29T17:33:18.727Z,2.90
2018-06-29T17:35:46.655Z,2.67
2018-06-29T17:38:14.074Z,3.37
2018-06-29T17:40:41.415Z,2.75
2018-06-29T17:43:08.731Z,4.12
2018-06-29T17:45:36.075Z,2.67
2018-06-29T17:48:03.400Z,2.90
2018-06-29T17:50:30.696Z,2.92
2018-06-29T17:52:58.664Z,2.77
2018-06-29T17:55:26.274Z,3.55
2018-06-29T17:57:53.500Z,3.35
2018-06-29T18:00:33.590Z,2.90
2018-06-29T18:03:00.870Z,2.60
2018-06-29T18:05:28.188Z,2.60
2018-06-29T18:07:55.469Z,2.15
2018-06-29T18:10:22.774Z,3.62
2018-06-29T18:12:50.118Z,2.83
2018-06-29T18:15:17.363Z,3.27
2018-06-29T18:17:50.616Z,2.70
2018-06-29T18:20:17.839Z,7.30
2018-06-29T18:22:45.121Z,4.17
2018-06-29T18:25:12.506Z,3.80
2018-06-29T18:27:39.808Z,2.83
2018-06-29T18:30:07.288Z,2.40
2018-06-29T18:32:34.580Z,2.75
2018-06-29T18:35:01.873Z,2.80
2018-06-29T18:37:31.273Z,2.95
2018-06-29T18:39:58.548Z,2.60
2018-06-29T18:42:25.804Z,2.72
2018-06-29T18:44:53.537Z,3.08
2018-06-29T18:47:20.822Z,3.00
2018-06-29T18:49:48.107Z,2.72
2018-06-29T18:52:15.396Z,4.97
2018-06-29T18:54:57.149Z,4.78
2018-06-29T18:57:24.538Z,4.60
2018-06-29T18:59:51.883Z,5.67
2018-06-29T19:02:19.184Z,4.57
2018-06-29T19:04:46.452Z,7.72
2018-06-29T19:07:14.600Z,7.63
2018-06-29T19:09:41.881Z,3.53
2018-06-29T19:12:11.337Z,2.80
2018-06-29T19:14:38.632Z,4.12
2018-06-29T19:17:05.920Z,5.73
2018-06-29T19:19:33.281Z,5.00
2018-06-29T19:22:00.612Z,4.03
2018-06-29T19:24:27.918Z,3.93
2018-06-29T19:26:55.164Z,4.53
2018-06-29T19:29:22.447Z,3.00
2018-06-29T19:31:49.708Z,4.72
2018-06-29T19:34:16.993Z,5.60
2018-06-29T19:36:44.281Z,3.53
2018-06-29T19:39:12.332Z,3.83
2018-06-29T19:41:40.524Z,5.00
2018-06-29T19:44:07.943Z,3.73
2018-06-29T19:46:35.224Z,6.60
2018-06-29T19:49:02.477Z,3.03
2018-06-29T19:51:29.779Z,6.10
2018-06-29T19:53:57.770Z,5.33
2018-06-29T19:56:25.066Z,4.93
2018-06-29T19:58:52.440Z,4.37
2018-06-29T20:01:19.754Z,3.57
2018-06-29T20:03:47.041Z,3.83
2018-06-29T20:06:14.309Z,3.50
2018-06-29T20:08:41.577Z,4.27
2018-06-29T20:11:08.884Z,3.83
2018-06-29T20:13:36.149Z,4.27
2018-06-29T20:16:03.479Z,8.17
2018-06-29T20:18:30.769Z,6.07
2018-06-29T20:20:58.089Z,5.23
2018-06-29T20:23:25.404Z,5.63
2018-06-29T20:25:52.825Z,7.03
2018-06-29T20:28:20.084Z,4.97
2018-06-29T20:30:47.365Z,4.60
2018-06-29T20:33:14.661Z,6.60
2018-06-29T20:35:41.973Z,7.00
2018-06-29T20:38:09.290Z,7.57
2018-06-29T20:40:36.564Z,3.47
2018-06-29T20:43:03.874Z,6.20
2018-06-29T20:45:31.205Z,7.20
2018-06-29T20:47:58.561Z,3.43
2018-06-29T20:50:25.840Z,3.43
2018-06-29T20:52:53.124Z,4.00
2018-06-29T20:55:20.427Z,5.00
2018-06-29T20:57:48.548Z,5.03
2018-06-29T21:00:15.840Z,4.27
2018-06-29T21:02:43.121Z,4.33
2018-06-29T21:05:10.376Z,5.00
2018-06-29T21:07:37.658Z,5.20
2018-06-29T21:10:04.918Z,7.00
2018-06-29T21:12:32.304Z,6.20
2018-06-29T21:14:59.500Z,3.30
2018-06-29T21:17:26.789Z,4.57
2018-06-29T21:19:54.085Z,3.30
2018-06-29T21:22:21.376Z,3.70
2018-06-29T21:24:48.633Z,5.40
2018-06-29T21:27:16.148Z,4.73
2018-06-29T21:29:43.380Z,5.77
2018-06-29T21:32:10.660Z,3.90
2018-06-29T21:34:37.932Z,4.23
2018-06-29T21:37:05.220Z,4.20
2018-06-29T21:39:32.484Z,4.93
2018-06-29T21:41:59.816Z,4.57
2018-06-29T21:44:27.085Z,6.53
2018-06-29T21:46:54.367Z,4.13
2018-06-29T21:49:21.641Z,5.63
2018-06-29T21:51:48.931Z,6.70
2018-06-29T21:54:16.291Z,4.77
2018-06-29T21:56:43.501Z,6.87
2018-06-29T21:59:10.785Z,7.27
2018-06-29T22:01:38.084Z,4.97
2018-06-29T22:04:05.357Z,4.57
2018-06-29T22:06:32.657Z,4.90
2018-06-29T22:08:59.965Z,9.17
2018-06-29T22:11:27.306Z,4.00
2018-06-29T22:13:55.275Z,4.90
2018-06-29T22:16:22.556Z,6.90
2018-06-29T22:18:49.995Z,5.20
2018-06-29T22:21:17.340Z,5.70
2018-06-29T22:23:44.630Z,7.30
2018-06-29T22:26:11.945Z,7.47
2018-06-29T22:28:39.239Z,5.27
2018-06-29T22:31:06.530Z,5.30
2018-06-29T22:33:33.794Z,5.80
2018-06-29T22:36:01.084Z,4.43
2018-06-29T22:38:28.387Z,5.77
2018-06-29T22:40:55.663Z,8.10
2018-06-29T22:43:22.944Z,6.20
2018-06-29T22:45:50.213Z,9.43
2018-06-29T22:48:17.492Z,5.27
2018-06-29T22:50:44.999Z,4.77
2018-06-29T22:53:12.288Z,5.40
2018-06-29T22:55:39.569Z,6.40
2018-06-29T22:58:06.869Z,8.33
2018-06-29T23:00:34.164Z,6.43
2018-06-29T23:03:05.703Z,7.47
2018-06-29T23:05:33.219Z,6.33
2018-06-29T23:08:00.568Z,5.10
2018-06-29T23:10:27.876Z,10.00
2018-06-29T23:12:55.158Z,5.73
2018-06-29T23:15:22.418Z,6.80
2018-06-29T23:17:49.699Z,5.00
2018-06-29T23:20:16.984Z,6.67
2018-06-29T23:22:44.289Z,5.27
2018-06-29T23:25:11.597Z,4.83
2018-06-29T23:27:38.884Z,5.00
2018-06-29T23:30:06.298Z,4.83
2018-06-29T23:32:33.611Z,6.20
2018-06-29T23:35:00.881Z,5.33
2018-06-29T23:37:28.176Z,5.63
2018-06-29T23:39:55.456Z,8.17
2018-06-29T23:42:22.776Z,5.37
2018-06-29T23:44:50.028Z,5.40
2018-06-29T23:47:17.312Z,13.60
2018-06-29T23:49:44.571Z,6.87
2018-06-29T23:52:11.862Z,7.53
2018-06-29T23:54:39.174Z,5.23
2018-06-29T23:57:06.452Z,5.33
2018-06-29T23:59:33.722Z,5.67
